Sea Isle City, New Jersey
Current Conditions -  °F | °C
As of 3:35 AM on Saturday 20 Dec 2014 (Local Time) from KWWD Reporting Station
Broken Clouds Broken Clouds  
Wind Chill: 25°   Ceiling: 3600
Heat Index: 25°   Visibility: 10mi
Dew Point: 18°   Wind: 0mph
Humidity: 74%   Direction: NA
Pressure: 30.23"   Gusts: NA
Location:  39.15°N, 74.69°W
Report Text: KWWD 200835Z AUTO 00000KT 10SM BKN036 M04/M08 A3023 RMK AO1
Loading
Personal Weather Stations






























Interactive Weather Map New forecast layout! Learn more

10-Day Weather Forecast

Advertisements
Track Severe Weather on mobile